sensor_id;sensor_type;location;lat;lon;timestamp;P1;durP1;ratioP1;P2;durP2;ratioP2
25341;SDS011;13298;48.792;9.154;2024-01-11T00:00:16;32.83;;;16.15;;
25341;SDS011;13298;48.792;9.154;2024-01-11T00:02:41;38.22;;;16.30;;
25341;SDS011;13298;48.792;9.154;2024-01-11T00:05:07;34.92;;;15.05;;
25341;SDS011;13298;48.792;9.154;2024-01-11T00:07:34;36.70;;;16.50;;
25341;SDS011;13298;48.792;9.154;2024-01-11T00:10:00;36.05;;;15.50;;
25341;SDS011;13298;48.792;9.154;2024-01-11T00:12:27;41.95;;;17.65;;
25341;SDS011;13298;48.792;9.154;2024-01-11T00:14:53;37.85;;;15.73;;
25341;SDS011;13298;48.792;9.154;2024-01-11T00:17:19;36.78;;;16.02;;
25341;SDS011;13298;48.792;9.154;2024-01-11T00:19:44;35.50;;;16.55;;
25341;SDS011;13298;48.792;9.154;2024-01-11T00:22:10;37.80;;;15.60;;
25341;SDS011;13298;48.792;9.154;2024-01-11T00:24:36;40.83;;;17.20;;
25341;SDS011;13298;48.792;9.154;2024-01-11T00:27:01;43.35;;;17.70;;
25341;SDS011;13298;48.792;9.154;2024-01-11T00:29:27;36.05;;;16.00;;
25341;SDS011;13298;48.792;9.154;2024-01-11T00:31:53;35.22;;;15.60;;
25341;SDS011;13298;48.792;9.154;2024-01-11T00:34:19;34.95;;;15.10;;
25341;SDS011;13298;48.792;9.154;2024-01-11T00:36:46;39.92;;;16.02;;
25341;SDS011;13298;48.792;9.154;2024-01-11T00:39:12;43.47;;;17.83;;
25341;SDS011;13298;48.792;9.154;2024-01-11T00:41:38;39.85;;;16.58;;
25341;SDS011;13298;48.792;9.154;2024-01-11T00:44:03;39.65;;;17.02;;
25341;SDS011;13298;48.792;9.154;2024-01-11T00:46:29;35.00;;;15.93;;
25341;SDS011;13298;48.792;9.154;2024-01-11T00:48:55;38.08;;;16.52;;
25341;SDS011;13298;48.792;9.154;2024-01-11T00:51:20;40.83;;;17.10;;
25341;SDS011;13298;48.792;9.154;2024-01-11T00:53:46;38.83;;;17.42;;
25341;SDS011;13298;48.792;9.154;2024-01-11T00:56:16;39.47;;;16.40;;
25341;SDS011;13298;48.792;9.154;2024-01-11T00:58:42;39.40;;;16.17;;
25341;SDS011;13298;48.792;9.154;2024-01-11T01:01:08;36.67;;;16.58;;
25341;SDS011;13298;48.792;9.154;2024-01-11T01:03:35;36.00;;;17.52;;
25341;SDS011;13298;48.792;9.154;2024-01-11T01:06:01;36.72;;;16.50;;
25341;SDS011;13298;48.792;9.154;2024-01-11T01:08:27;40.22;;;16.88;;
25341;SDS011;13298;48.792;9.154;2024-01-11T01:10:53;33.60;;;14.85;;
25341;SDS011;13298;48.792;9.154;2024-01-11T01:13:19;43.92;;;16.58;;
25341;SDS011;13298;48.792;9.154;2024-01-11T01:15:45;36.33;;;15.95;;
25341;SDS011;13298;48.792;9.154;2024-01-11T01:18:11;38.00;;;16.90;;
25341;SDS011;13298;48.792;9.154;2024-01-11T01:20:36;37.00;;;16.80;;
25341;SDS011;13298;48.792;9.154;2024-01-11T01:23:02;38.78;;;18.08;;
25341;SDS011;13298;48.792;9.154;2024-01-11T01:25:28;38.88;;;16.85;;
25341;SDS011;13298;48.792;9.154;2024-01-11T01:27:54;40.53;;;16.60;;
25341;SDS011;13298;48.792;9.154;2024-01-11T01:30:20;40.65;;;17.02;;
25341;SDS011;13298;48.792;9.154;2024-01-11T01:32:48;40.63;;;16.80;;
25341;SDS011;13298;48.792;9.154;2024-01-11T01:35:13;39.40;;;17.52;;
25341;SDS011;13298;48.792;9.154;2024-01-11T01:37:39;35.50;;;16.27;;
25341;SDS011;13298;48.792;9.154;2024-01-11T01:40:05;39.63;;;17.17;;
25341;SDS011;13298;48.792;9.154;2024-01-11T01:42:32;38.25;;;16.35;;
25341;SDS011;13298;48.792;9.154;2024-01-11T01:44:58;37.53;;;16.38;;
25341;SDS011;13298;48.792;9.154;2024-01-11T01:47:25;41.05;;;16.42;;
25341;SDS011;13298;48.792;9.154;2024-01-11T01:49:52;43.53;;;16.27;;
25341;SDS011;13298;48.792;9.154;2024-01-11T01:52:19;43.10;;;17.42;;
25341;SDS011;13298;48.792;9.154;2024-01-11T01:54:47;35.83;;;16.58;;
25341;SDS011;13298;48.792;9.154;2024-01-11T01:57:14;37.78;;;16.77;;
25341;SDS011;13298;48.792;9.154;2024-01-11T01:59:41;37.47;;;16.60;;
25341;SDS011;13298;48.792;9.154;2024-01-11T02:02:08;36.78;;;17.88;;
25341;SDS011;13298;48.792;9.154;2024-01-11T02:04:35;39.28;;;16.52;;
25341;SDS011;13298;48.792;9.154;2024-01-11T02:07:01;35.83;;;16.63;;
25341;SDS011;13298;48.792;9.154;2024-01-11T02:09:27;42.15;;;16.42;;
25341;SDS011;13298;48.792;9.154;2024-01-11T02:11:54;38.20;;;17.10;;
25341;SDS011;13298;48.792;9.154;2024-01-11T02:14:20;37.08;;;16.73;;
25341;SDS011;13298;48.792;9.154;2024-01-11T02:16:46;38.38;;;16.83;;
25341;SDS011;13298;48.792;9.154;2024-01-11T02:19:14;37.22;;;16.10;;
25341;SDS011;13298;48.792;9.154;2024-01-11T02:21:44;38.58;;;15.88;;
25341;SDS011;13298;48.792;9.154;2024-01-11T02:24:13;33.60;;;15.63;;
25341;SDS011;13298;48.792;9.154;2024-01-11T02:29:25;44.45;;;16.73;;
25341;SDS011;13298;48.792;9.154;2024-01-11T02:31:51;44.33;;;16.88;;
25341;SDS011;13298;48.792;9.154;2024-01-11T02:34:17;35.15;;;15.98;;
25341;SDS011;13298;48.792;9.154;2024-01-11T02:36:44;39.38;;;15.93;;
25341;SDS011;13298;48.792;9.154;2024-01-11T02:39:10;41.83;;;16.63;;
25341;SDS011;13298;48.792;9.154;2024-01-11T02:41:37;41.20;;;16.38;;
25341;SDS011;13298;48.792;9.154;2024-01-11T02:44:03;41.33;;;16.70;;
25341;SDS011;13298;48.792;9.154;2024-01-11T02:46:29;40.22;;;16.67;;
25341;SDS011;13298;48.792;9.154;2024-01-11T02:48:55;39.25;;;16.73;;
25341;SDS011;13298;48.792;9.154;2024-01-11T02:51:21;37.20;;;15.45;;
25341;SDS011;13298;48.792;9.154;2024-01-11T02:53:46;33.55;;;15.43;;
25341;SDS011;13298;48.792;9.154;2024-01-11T02:56:12;39.20;;;17.20;;
25341;SDS011;13298;48.792;9.154;2024-01-11T02:58:38;37.08;;;16.73;;
25341;SDS011;13298;48.792;9.154;2024-01-11T03:01:03;32.83;;;16.27;;
25341;SDS011;13298;48.792;9.154;2024-01-11T03:03:29;38.90;;;16.50;;
25341;SDS011;13298;48.792;9.154;2024-01-11T03:05:55;40.13;;;17.25;;
25341;SDS011;13298;48.792;9.154;2024-01-11T03:08:20;38.88;;;17.08;;
25341;SDS011;13298;48.792;9.154;2024-01-11T03:10:46;38.97;;;15.45;;
25341;SDS011;13298;48.792;9.154;2024-01-11T03:13:12;39.22;;;16.85;;
25341;SDS011;13298;48.792;9.154;2024-01-11T03:15:38;41.53;;;16.98;;
25341;SDS011;13298;48.792;9.154;2024-01-11T03:18:04;39.40;;;17.52;;
25341;SDS011;13298;48.792;9.154;2024-01-11T03:20:29;43.60;;;18.17;;
25341;SDS011;13298;48.792;9.154;2024-01-11T03:22:55;40.33;;;17.00;;
25341;SDS011;13298;48.792;9.154;2024-01-11T03:25:21;41.75;;;17.65;;
25341;SDS011;13298;48.792;9.154;2024-01-11T03:27:47;40.60;;;17.92;;
25341;SDS011;13298;48.792;9.154;2024-01-11T03:30:12;40.53;;;17.20;;
25341;SDS011;13298;48.792;9.154;2024-01-11T03:32:38;33.83;;;15.32;;
25341;SDS011;13298;48.792;9.154;2024-01-11T03:35:07;42.38;;;16.73;;
25341;SDS011;13298;48.792;9.154;2024-01-11T03:37:34;45.80;;;17.60;;
25341;SDS011;13298;48.792;9.154;2024-01-11T03:40:00;38.70;;;17.67;;
25341;SDS011;13298;48.792;9.154;2024-01-11T03:42:27;40.90;;;17.15;;
25341;SDS011;13298;48.792;9.154;2024-01-11T03:44:53;39.63;;;17.85;;
25341;SDS011;13298;48.792;9.154;2024-01-11T03:47:19;41.13;;;17.00;;
25341;SDS011;13298;48.792;9.154;2024-01-11T03:49:44;35.58;;;16.05;;
25341;SDS011;13298;48.792;9.154;2024-01-11T03:52:10;37.63;;;15.93;;
25341;SDS011;13298;48.792;9.154;2024-01-11T03:54:36;42.25;;;17.20;;
25341;SDS011;13298;48.792;9.154;2024-01-11T03:57:02;36.75;;;16.77;;
25341;SDS011;13298;48.792;9.154;2024-01-11T03:59:28;42.40;;;17.67;;
25341;SDS011;13298;48.792;9.154;2024-01-11T04:01:53;34.47;;;15.93;;
25341;SDS011;13298;48.792;9.154;2024-01-11T04:04:20;46.65;;;16.95;;
25341;SDS011;13298;48.792;9.154;2024-01-11T04:06:45;37.47;;;16.67;;
25341;SDS011;13298;48.792;9.154;2024-01-11T04:09:11;44.30;;;17.73;;
25341;SDS011;13298;48.792;9.154;2024-01-11T04:11:37;40.30;;;16.70;;
25341;SDS011;13298;48.792;9.154;2024-01-11T04:14:02;39.42;;;17.42;;
25341;SDS011;13298;48.792;9.154;2024-01-11T04:16:28;36.53;;;17.20;;
25341;SDS011;13298;48.792;9.154;2024-01-11T04:18:54;35.85;;;16.00;;
25341;SDS011;13298;48.792;9.154;2024-01-11T04:21:26;41.65;;;17.35;;
25341;SDS011;13298;48.792;9.154;2024-01-11T04:23:55;39.97;;;16.17;;
25341;SDS011;13298;48.792;9.154;2024-01-11T04:26:22;39.25;;;16.48;;
25341;SDS011;13298;48.792;9.154;2024-01-11T04:28:47;37.90;;;16.52;;
25341;SDS011;13298;48.792;9.154;2024-01-11T04:31:14;41.90;;;18.23;;
25341;SDS011;13298;48.792;9.154;2024-01-11T04:33:43;37.28;;;16.38;;
25341;SDS011;13298;48.792;9.154;2024-01-11T04:36:10;40.53;;;17.55;;
25341;SDS011;13298;48.792;9.154;2024-01-11T04:38:37;39.67;;;16.85;;
25341;SDS011;13298;48.792;9.154;2024-01-11T04:41:07;43.60;;;16.88;;
25341;SDS011;13298;48.792;9.154;2024-01-11T04:43:35;38.45;;;17.33;;
25341;SDS011;13298;48.792;9.154;2024-01-11T04:46:03;41.97;;;17.20;;
25341;SDS011;13298;48.792;9.154;2024-01-11T04:48:29;37.17;;;16.77;;
25341;SDS011;13298;48.792;9.154;2024-01-11T04:50:55;43.00;;;16.63;;
25341;SDS011;13298;48.792;9.154;2024-01-11T04:53:20;36.85;;;16.08;;
25341;SDS011;13298;48.792;9.154;2024-01-11T04:55:46;41.50;;;16.73;;
25341;SDS011;13298;48.792;9.154;2024-01-11T04:58:12;39.85;;;16.80;;
25341;SDS011;13298;48.792;9.154;2024-01-11T05:00:40;42.63;;;17.17;;
25341;SDS011;13298;48.792;9.154;2024-01-11T05:03:06;42.38;;;17.52;;
25341;SDS011;13298;48.792;9.154;2024-01-11T05:05:32;39.92;;;17.38;;
25341;SDS011;13298;48.792;9.154;2024-01-11T05:07:57;42.03;;;17.13;;
25341;SDS011;13298;48.792;9.154;2024-01-11T05:10:23;40.17;;;16.55;;
25341;SDS011;13298;48.792;9.154;2024-01-11T05:12:48;43.22;;;16.67;;
25341;SDS011;13298;48.792;9.154;2024-01-11T05:15:14;35.88;;;15.75;;
25341;SDS011;13298;48.792;9.154;2024-01-11T05:17:40;38.95;;;16.92;;
25341;SDS011;13298;48.792;9.154;2024-01-11T05:20:07;41.92;;;17.27;;
25341;SDS011;13298;48.792;9.154;2024-01-11T05:22:33;38.78;;;16.77;;
25341;SDS011;13298;48.792;9.154;2024-01-11T05:24:59;41.25;;;17.08;;
25341;SDS011;13298;48.792;9.154;2024-01-11T05:27:24;42.60;;;16.75;;
25341;SDS011;13298;48.792;9.154;2024-01-11T05:29:50;40.20;;;16.15;;
25341;SDS011;13298;48.792;9.154;2024-01-11T05:32:16;36.50;;;16.63;;
25341;SDS011;13298;48.792;9.154;2024-01-11T05:34:41;37.08;;;16.50;;
25341;SDS011;13298;48.792;9.154;2024-01-11T05:37:07;40.22;;;16.83;;
25341;SDS011;13298;48.792;9.154;2024-01-11T05:39:33;38.85;;;16.90;;
25341;SDS011;13298;48.792;9.154;2024-01-11T05:41:58;41.58;;;17.35;;
25341;SDS011;13298;48.792;9.154;2024-01-11T05:44:24;38.80;;;17.02;;
25341;SDS011;13298;48.792;9.154;2024-01-11T05:46:50;38.67;;;17.42;;
25341;SDS011;13298;48.792;9.154;2024-01-11T05:49:15;40.00;;;17.15;;
25341;SDS011;13298;48.792;9.154;2024-01-11T05:51:41;39.28;;;16.83;;
25341;SDS011;13298;48.792;9.154;2024-01-11T05:54:07;46.13;;;18.67;;
25341;SDS011;13298;48.792;9.154;2024-01-11T05:56:33;41.33;;;17.55;;
25341;SDS011;13298;48.792;9.154;2024-01-11T05:58:58;44.60;;;18.27;;
25341;SDS011;13298;48.792;9.154;2024-01-11T06:01:24;38.60;;;16.48;;
25341;SDS011;13298;48.792;9.154;2024-01-11T06:03:50;39.70;;;17.15;;
25341;SDS011;13298;48.792;9.154;2024-01-11T06:06:15;44.03;;;17.40;;
25341;SDS011;13298;48.792;9.154;2024-01-11T06:08:41;35.97;;;16.92;;
25341;SDS011;13298;48.792;9.154;2024-01-11T06:11:08;42.90;;;17.77;;
25341;SDS011;13298;48.792;9.154;2024-01-11T06:13:34;38.85;;;16.52;;
25341;SDS011;13298;48.792;9.154;2024-01-11T06:16:00;39.72;;;17.35;;
25341;SDS011;13298;48.792;9.154;2024-01-11T06:18:26;38.03;;;16.20;;
25341;SDS011;13298;48.792;9.154;2024-01-11T06:20:51;41.67;;;17.45;;
25341;SDS011;13298;48.792;9.154;2024-01-11T06:23:17;44.22;;;18.38;;
25341;SDS011;13298;48.792;9.154;2024-01-11T06:25:44;46.03;;;17.73;;
25341;SDS011;13298;48.792;9.154;2024-01-11T06:28:11;41.05;;;17.30;;
25341;SDS011;13298;48.792;9.154;2024-01-11T06:30:37;40.78;;;16.98;;
25341;SDS011;13298;48.792;9.154;2024-01-11T06:33:02;40.30;;;17.77;;
25341;SDS011;13298;48.792;9.154;2024-01-11T06:35:28;44.72;;;17.58;;
25341;SDS011;13298;48.792;9.154;2024-01-11T06:37:54;43.28;;;16.85;;
25341;SDS011;13298;48.792;9.154;2024-01-11T06:40:20;43.33;;;17.83;;
25341;SDS011;13298;48.792;9.154;2024-01-11T06:42:45;41.78;;;18.25;;
25341;SDS011;13298;48.792;9.154;2024-01-11T06:45:11;39.72;;;17.02;;
25341;SDS011;13298;48.792;9.154;2024-01-11T06:47:37;46.75;;;17.83;;
25341;SDS011;13298;48.792;9.154;2024-01-11T06:50:02;40.47;;;16.92;;
25341;SDS011;13298;48.792;9.154;2024-01-11T06:52:28;42.30;;;17.40;;
25341;SDS011;13298;48.792;9.154;2024-01-11T06:54:54;40.70;;;18.55;;
25341;SDS011;13298;48.792;9.154;2024-01-11T06:57:20;38.83;;;16.90;;
25341;SDS011;13298;48.792;9.154;2024-01-11T06:59:45;42.35;;;16.77;;
25341;SDS011;13298;48.792;9.154;2024-01-11T07:02:11;39.25;;;17.20;;
25341;SDS011;13298;48.792;9.154;2024-01-11T07:04:37;43.95;;;17.13;;
25341;SDS011;13298;48.792;9.154;2024-01-11T07:07:03;41.60;;;17.10;;
25341;SDS011;13298;48.792;9.154;2024-01-11T07:09:29;38.85;;;16.90;;
25341;SDS011;13298;48.792;9.154;2024-01-11T07:11:55;41.30;;;16.92;;
25341;SDS011;13298;48.792;9.154;2024-01-11T07:14:20;43.70;;;17.02;;
25341;SDS011;13298;48.792;9.154;2024-01-11T07:16:46;42.15;;;17.23;;
25341;SDS011;13298;48.792;9.154;2024-01-11T07:19:12;38.08;;;16.35;;
25341;SDS011;13298;48.792;9.154;2024-01-11T07:21:37;40.92;;;17.27;;
25341;SDS011;13298;48.792;9.154;2024-01-11T07:24:04;42.63;;;17.35;;
25341;SDS011;13298;48.792;9.154;2024-01-11T07:26:30;41.60;;;16.73;;
25341;SDS011;13298;48.792;9.154;2024-01-11T07:28:55;37.08;;;16.23;;
25341;SDS011;13298;48.792;9.154;2024-01-11T07:31:21;38.85;;;17.33;;
25341;SDS011;13298;48.792;9.154;2024-01-11T07:33:47;43.58;;;17.15;;
25341;SDS011;13298;48.792;9.154;2024-01-11T07:36:12;42.45;;;17.27;;
25341;SDS011;13298;48.792;9.154;2024-01-11T07:38:38;47.92;;;18.52;;
25341;SDS011;13298;48.792;9.154;2024-01-11T07:41:04;40.97;;;17.10;;
25341;SDS011;13298;48.792;9.154;2024-01-11T07:43:30;41.05;;;17.00;;
25341;SDS011;13298;48.792;9.154;2024-01-11T07:46:00;37.90;;;16.63;;
25341;SDS011;13298;48.792;9.154;2024-01-11T07:48:30;42.03;;;18.20;;
25341;SDS011;13298;48.792;9.154;2024-01-11T07:50:57;42.17;;;17.58;;
25341;SDS011;13298;48.792;9.154;2024-01-11T07:53:24;46.33;;;18.20;;
25341;SDS011;13298;48.792;9.154;2024-01-11T07:55:50;40.45;;;17.48;;
25341;SDS011;13298;48.792;9.154;2024-01-11T07:58:16;35.17;;;15.98;;
25341;SDS011;13298;48.792;9.154;2024-01-11T08:00:42;40.05;;;17.90;;
25341;SDS011;13298;48.792;9.154;2024-01-11T08:03:08;44.25;;;17.90;;
25341;SDS011;13298;48.792;9.154;2024-01-11T08:05:34;46.92;;;19.25;;
25341;SDS011;13298;48.792;9.154;2024-01-11T08:08:00;44.30;;;18.55;;
25341;SDS011;13298;48.792;9.154;2024-01-11T08:10:28;40.28;;;17.98;;
25341;SDS011;13298;48.792;9.154;2024-01-11T08:12:55;47.70;;;18.48;;
25341;SDS011;13298;48.792;9.154;2024-01-11T08:15:21;40.75;;;18.90;;
25341;SDS011;13298;48.792;9.154;2024-01-11T08:17:47;46.15;;;19.30;;
25341;SDS011;13298;48.792;9.154;2024-01-11T08:20:13;49.47;;;19.30;;
25341;SDS011;13298;48.792;9.154;2024-01-11T08:22:40;48.47;;;19.40;;
25341;SDS011;13298;48.792;9.154;2024-01-11T08:25:08;39.55;;;16.48;;
25341;SDS011;13298;48.792;9.154;2024-01-11T08:27:34;39.28;;;18.13;;
25341;SDS011;13298;48.792;9.154;2024-01-11T08:30:00;42.13;;;17.80;;
25341;SDS011;13298;48.792;9.154;2024-01-11T08:32:26;49.78;;;18.80;;
25341;SDS011;13298;48.792;9.154;2024-01-11T08:34:52;47.42;;;18.83;;
25341;SDS011;13298;48.792;9.154;2024-01-11T08:37:17;44.42;;;18.23;;
25341;SDS011;13298;48.792;9.154;2024-01-11T08:39:43;44.33;;;18.48;;
25341;SDS011;13298;48.792;9.154;2024-01-11T08:42:11;54.38;;;19.70;;
25341;SDS011;13298;48.792;9.154;2024-01-11T08:44:40;42.28;;;17.65;;
25341;SDS011;13298;48.792;9.154;2024-01-11T08:47:07;44.60;;;18.80;;
25341;SDS011;13298;48.792;9.154;2024-01-11T08:49:35;46.05;;;18.48;;
25341;SDS011;13298;48.792;9.154;2024-01-11T08:52:04;40.55;;;18.35;;
25341;SDS011;13298;48.792;9.154;2024-01-11T08:54:30;41.55;;;18.38;;
25341;SDS011;13298;48.792;9.154;2024-01-11T08:57:00;43.92;;;18.88;;
25341;SDS011;13298;48.792;9.154;2024-01-11T08:59:26;41.78;;;18.45;;
25341;SDS011;13298;48.792;9.154;2024-01-11T09:01:52;45.63;;;18.83;;
25341;SDS011;13298;48.792;9.154;2024-01-11T09:04:18;41.25;;;18.13;;
25341;SDS011;13298;48.792;9.154;2024-01-11T09:06:44;40.50;;;17.73;;
25341;SDS011;13298;48.792;9.154;2024-01-11T09:09:10;49.22;;;20.80;;
25341;SDS011;13298;48.792;9.154;2024-01-11T09:11:38;46.25;;;19.42;;
25341;SDS011;13298;48.792;9.154;2024-01-11T09:14:06;45.30;;;19.50;;
25341;SDS011;13298;48.792;9.154;2024-01-11T09:16:32;46.28;;;19.83;;
25341;SDS011;13298;48.792;9.154;2024-01-11T09:18:58;39.60;;;17.67;;
25341;SDS011;13298;48.792;9.154;2024-01-11T09:21:26;44.10;;;19.35;;
25341;SDS011;13298;48.792;9.154;2024-01-11T09:23:52;43.70;;;19.90;;
25341;SDS011;13298;48.792;9.154;2024-01-11T09:26:18;53.85;;;21.38;;
25341;SDS011;13298;48.792;9.154;2024-01-11T09:28:44;44.92;;;20.08;;
25341;SDS011;13298;48.792;9.154;2024-01-11T09:31:10;43.17;;;19.38;;
25341;SDS011;13298;48.792;9.154;2024-01-11T09:33:36;45.47;;;19.88;;
25341;SDS011;13298;48.792;9.154;2024-01-11T09:36:03;49.47;;;21.33;;
25341;SDS011;13298;48.792;9.154;2024-01-11T09:38:29;47.88;;;20.13;;
25341;SDS011;13298;48.792;9.154;2024-01-11T09:41:08;42.25;;;20.40;;
25341;SDS011;13298;48.792;9.154;2024-01-11T09:43:36;46.67;;;21.13;;
25341;SDS011;13298;48.792;9.154;2024-01-11T09:46:05;47.78;;;21.60;;
25341;SDS011;13298;48.792;9.154;2024-01-11T09:48:34;46.13;;;21.23;;
25341;SDS011;13298;48.792;9.154;2024-01-11T09:51:02;43.40;;;18.23;;
25341;SDS011;13298;48.792;9.154;2024-01-11T09:53:31;42.63;;;19.48;;
25341;SDS011;13298;48.792;9.154;2024-01-11T09:56:00;47.90;;;21.02;;
25341;SDS011;13298;48.792;9.154;2024-01-11T09:58:26;55.63;;;22.42;;
25341;SDS011;13298;48.792;9.154;2024-01-11T10:00:55;44.50;;;20.98;;
25341;SDS011;13298;48.792;9.154;2024-01-11T10:03:24;54.50;;;22.05;;
25341;SDS011;13298;48.792;9.154;2024-01-11T10:05:51;50.88;;;20.48;;
25341;SDS011;13298;48.792;9.154;2024-01-11T10:08:22;51.13;;;20.85;;
25341;SDS011;13298;48.792;9.154;2024-01-11T10:10:49;51.97;;;22.38;;
25341;SDS011;13298;48.792;9.154;2024-01-11T10:13:15;51.05;;;21.15;;
25341;SDS011;13298;48.792;9.154;2024-01-11T10:15:41;39.42;;;18.38;;
25341;SDS011;13298;48.792;9.154;2024-01-11T10:18:08;51.33;;;21.23;;
25341;SDS011;13298;48.792;9.154;2024-01-11T10:20:34;53.13;;;23.02;;
25341;SDS011;13298;48.792;9.154;2024-01-11T10:23:00;54.10;;;22.15;;
25341;SDS011;13298;48.792;9.154;2024-01-11T10:25:27;51.22;;;21.60;;
25341;SDS011;13298;48.792;9.154;2024-01-11T10:27:53;41.42;;;19.40;;
25341;SDS011;13298;48.792;9.154;2024-01-11T10:30:19;51.40;;;20.67;;
25341;SDS011;13298;48.792;9.154;2024-01-11T10:32:47;48.22;;;20.40;;
25341;SDS011;13298;48.792;9.154;2024-01-11T10:35:14;47.45;;;20.73;;
25341;SDS011;13298;48.792;9.154;2024-01-11T10:37:42;44.45;;;21.83;;
25341;SDS011;13298;48.792;9.154;2024-01-11T10:40:09;49.78;;;22.98;;
25341;SDS011;13298;48.792;9.154;2024-01-11T10:42:42;53.80;;;21.75;;
25341;SDS011;13298;48.792;9.154;2024-01-11T10:45:14;48.45;;;21.15;;
25341;SDS011;13298;48.792;9.154;2024-01-11T10:50:19;42.40;;;20.17;;
25341;SDS011;13298;48.792;9.154;2024-01-11T10:55:42;43.60;;;19.05;;
25341;SDS011;13298;48.792;9.154;2024-01-11T10:58:10;44.22;;;19.75;;
25341;SDS011;13298;48.792;9.154;2024-01-11T11:00:36;50.28;;;20.60;;
25341;SDS011;13298;48.792;9.154;2024-01-11T11:03:03;45.55;;;20.92;;
25341;SDS011;13298;48.792;9.154;2024-01-11T11:05:31;51.88;;;22.45;;
25341;SDS011;13298;48.792;9.154;2024-01-11T11:08:00;45.83;;;22.55;;
25341;SDS011;13298;48.792;9.154;2024-01-11T11:10:27;42.10;;;20.73;;
25341;SDS011;13298;48.792;9.154;2024-01-11T11:12:55;47.17;;;22.05;;
25341;SDS011;13298;48.792;9.154;2024-01-11T11:15:24;49.90;;;22.70;;
25341;SDS011;13298;48.792;9.154;2024-01-11T11:17:52;54.25;;;22.70;;
25341;SDS011;13298;48.792;9.154;2024-01-11T11:20:18;45.70;;;21.98;;
25341;SDS011;13298;48.792;9.154;2024-01-11T11:22:48;50.28;;;22.73;;
25341;SDS011;13298;48.792;9.154;2024-01-11T11:25:29;51.50;;;23.20;;
25341;SDS011;13298;48.792;9.154;2024-01-11T11:27:55;48.90;;;22.75;;
25341;SDS011;13298;48.792;9.154;2024-01-11T11:30:21;44.15;;;20.02;;
25341;SDS011;13298;48.792;9.154;2024-01-11T11:32:48;49.38;;;22.13;;
25341;SDS011;13298;48.792;9.154;2024-01-11T11:35:13;49.47;;;22.90;;
25341;SDS011;13298;48.792;9.154;2024-01-11T11:37:39;49.72;;;22.38;;
25341;SDS011;13298;48.792;9.154;2024-01-11T11:40:06;50.70;;;21.88;;
25341;SDS011;13298;48.792;9.154;2024-01-11T11:42:35;45.65;;;21.75;;
25341;SDS011;13298;48.792;9.154;2024-01-11T11:45:01;51.35;;;23.00;;
25341;SDS011;13298;48.792;9.154;2024-01-11T11:47:35;48.20;;;21.92;;
25341;SDS011;13298;48.792;9.154;2024-01-11T11:52:32;45.90;;;22.38;;
25341;SDS011;13298;48.792;9.154;2024-01-11T11:55:00;42.80;;;20.73;;
25341;SDS011;13298;48.792;9.154;2024-01-11T11:57:27;48.00;;;22.15;;
25341;SDS011;13298;48.792;9.154;2024-01-11T11:59:56;46.50;;;19.90;;
25341;SDS011;13298;48.792;9.154;2024-01-11T12:02:32;45.95;;;20.88;;
25341;SDS011;13298;48.792;9.154;2024-01-11T12:05:01;48.28;;;20.40;;
25341;SDS011;13298;48.792;9.154;2024-01-11T12:07:27;43.53;;;20.42;;
25341;SDS011;13298;48.792;9.154;2024-01-11T12:09:52;42.83;;;20.48;;
25341;SDS011;13298;48.792;9.154;2024-01-11T12:12:18;43.47;;;20.98;;
25341;SDS011;13298;48.792;9.154;2024-01-11T12:14:46;49.58;;;22.00;;
25341;SDS011;13298;48.792;9.154;2024-01-11T12:17:12;45.47;;;21.88;;
25341;SDS011;13298;48.792;9.154;2024-01-11T12:19:38;49.90;;;22.85;;
25341;SDS011;13298;48.792;9.154;2024-01-11T12:22:04;46.97;;;21.60;;
25341;SDS011;13298;48.792;9.154;2024-01-11T12:24:30;46.58;;;22.20;;
25341;SDS011;13298;48.792;9.154;2024-01-11T12:26:58;46.40;;;20.85;;
25341;SDS011;13298;48.792;9.154;2024-01-11T12:29:24;44.20;;;21.10;;
25341;SDS011;13298;48.792;9.154;2024-01-11T12:31:50;42.30;;;21.10;;
25341;SDS011;13298;48.792;9.154;2024-01-11T12:34:17;47.83;;;20.55;;
25341;SDS011;13298;48.792;9.154;2024-01-11T12:36:43;42.70;;;21.13;;
25341;SDS011;13298;48.792;9.154;2024-01-11T12:39:10;44.45;;;20.55;;
25341;SDS011;13298;48.792;9.154;2024-01-11T12:41:38;45.33;;;20.80;;
25341;SDS011;13298;48.792;9.154;2024-01-11T12:44:04;50.97;;;21.90;;
25341;SDS011;13298;48.792;9.154;2024-01-11T12:46:30;40.78;;;19.83;;
25341;SDS011;13298;48.792;9.154;2024-01-11T12:48:56;52.50;;;22.42;;
25341;SDS011;13298;48.792;9.154;2024-01-11T12:51:21;46.47;;;22.17;;
25341;SDS011;13298;48.792;9.154;2024-01-11T12:53:47;47.47;;;21.35;;
25341;SDS011;13298;48.792;9.154;2024-01-11T12:56:14;45.05;;;20.85;;
25341;SDS011;13298;48.792;9.154;2024-01-11T12:58:41;45.80;;;21.83;;
25341;SDS011;13298;48.792;9.154;2024-01-11T13:01:07;47.85;;;21.10;;
25341;SDS011;13298;48.792;9.154;2024-01-11T13:03:34;44.70;;;20.85;;
25341;SDS011;13298;48.792;9.154;2024-01-11T13:06:03;44.13;;;21.52;;
25341;SDS011;13298;48.792;9.154;2024-01-11T13:08:30;41.92;;;20.52;;
25341;SDS011;13298;48.792;9.154;2024-01-11T13:11:02;45.03;;;20.98;;
25341;SDS011;13298;48.792;9.154;2024-01-11T13:13:34;43.40;;;19.73;;
25341;SDS011;13298;48.792;9.154;2024-01-11T13:16:01;50.85;;;20.50;;
25341;SDS011;13298;48.792;9.154;2024-01-11T13:18:31;43.05;;;19.75;;
25341;SDS011;13298;48.792;9.154;2024-01-11T13:21:00;44.75;;;20.98;;
25341;SDS011;13298;48.792;9.154;2024-01-11T13:23:25;40.83;;;19.92;;
25341;SDS011;13298;48.792;9.154;2024-01-11T13:25:51;40.28;;;20.38;;
25341;SDS011;13298;48.792;9.154;2024-01-11T13:28:17;42.08;;;20.35;;
25341;SDS011;13298;48.792;9.154;2024-01-11T13:30:44;49.78;;;22.13;;
25341;SDS011;13298;48.792;9.154;2024-01-11T13:33:11;38.38;;;18.85;;
25341;SDS011;13298;48.792;9.154;2024-01-11T13:35:38;45.20;;;20.83;;
25341;SDS011;13298;48.792;9.154;2024-01-11T13:38:05;46.50;;;21.88;;
25341;SDS011;13298;48.792;9.154;2024-01-11T13:40:31;47.08;;;20.20;;
25341;SDS011;13298;48.792;9.154;2024-01-11T13:42:58;44.92;;;20.55;;
25341;SDS011;13298;48.792;9.154;2024-01-11T13:45:24;50.53;;;21.17;;
25341;SDS011;13298;48.792;9.154;2024-01-11T13:47:51;46.35;;;21.65;;
25341;SDS011;13298;48.792;9.154;2024-01-11T13:50:21;40.58;;;20.85;;
25341;SDS011;13298;48.792;9.154;2024-01-11T13:52:49;45.17;;;21.73;;
25341;SDS011;13298;48.792;9.154;2024-01-11T13:55:15;45.58;;;20.42;;
25341;SDS011;13298;48.792;9.154;2024-01-11T13:57:46;42.88;;;21.10;;
25341;SDS011;13298;48.792;9.154;2024-01-11T14:00:17;42.17;;;19.85;;
25341;SDS011;13298;48.792;9.154;2024-01-11T14:02:47;39.85;;;20.10;;
25341;SDS011;13298;48.792;9.154;2024-01-11T14:05:13;43.95;;;20.88;;
25341;SDS011;13298;48.792;9.154;2024-01-11T14:07:42;41.83;;;18.67;;
25341;SDS011;13298;48.792;9.154;2024-01-11T14:10:10;47.50;;;21.33;;
25341;SDS011;13298;48.792;9.154;2024-01-11T14:12:37;45.83;;;21.27;;
25341;SDS011;13298;48.792;9.154;2024-01-11T14:15:03;46.70;;;21.48;;
25341;SDS011;13298;48.792;9.154;2024-01-11T14:17:34;46.80;;;21.75;;
25341;SDS011;13298;48.792;9.154;2024-01-11T14:20:00;48.00;;;21.85;;
25341;SDS011;13298;48.792;9.154;2024-01-11T14:22:26;48.45;;;22.48;;
25341;SDS011;13298;48.792;9.154;2024-01-11T14:24:52;46.45;;;21.38;;
25341;SDS011;13298;48.792;9.154;2024-01-11T14:27:19;46.83;;;23.10;;